Flight Track Log - Related Links

Times and Time Zones

All times are in EDT time to prevent confusion due to time zone crossing. See the SWA286 flight status page for this flight to view local times or setup timezone preferences in your user account.

Time Position Orientation Groundspeed Altitude Reporting Facility
EDT Latitude Longitude Course Direction KTS MPH feet Rate Location/Type
Fri 16:47:07 36.1000 -86.6833 248° West 154 177 1,400  Level Nashville TRACON
Fri 16:47:56 36.0833 -86.7333 248° West 183 211 3,000 2,697 Climbing Nashville TRACON
Fri 16:48:56 36.1000 -86.8000 287° West 256 295 6,300 3,419 Climbing Nashville TRACON
Fri 16:49:29 36.1217 -86.8547 296° West 247 284 8,300 3,032 Climbing Memphis Center
Fri 16:50:29 36.1508 -86.9306 295° West 263 303 11,000 2,850 Climbing Memphis Center
Fri 16:51:29 36.1908 -87.0267 297° West 297 342 14,000 3,100 Climbing Memphis Center
Fri 16:52:29 36.2311 -87.1306 296° West 317 365 17,200 2,700 Climbing Memphis Center
Fri 16:53:29 36.2669 -87.2242 295° West 337 388 19,400 2,450 Climbing Memphis Center
Fri 16:54:29 36.2886 -87.3367 283° West 337 388 22,100 2,479 Climbing Memphis Center
Fri 16:55:30 36.3081 -87.4544 282° West 337 388 24,400 2,150 Climbing Memphis Center
Fri 16:56:29 36.3439 -87.5692 291° West 346 398 26,400 1,815 Climbing Memphis Center
Fri 16:57:29 36.3967 -87.6886 299° West 380 437 28,000 1,450 Climbing Memphis Center
Fri 16:58:29 36.4578 -87.8181 300° West 393 452 29,300 1,650 Climbing Memphis Center
Fri 16:59:29 36.5125 -87.9456 298° West 404 465 31,300 1,467 Climbing Memphis Center
Fri 17:01:29 36.6275 -88.1928 300° West 409 471 33,700 1,267 Climbing Memphis Center
Fri 17:02:29 36.6631 -88.3264 288° West 414 476 35,100 1,500 Climbing Memphis Center
Fri 17:03:29 36.6861 -88.4578 282° West 392 451 36,700 1,350 Climbing Memphis Center
Fri 17:04:29 36.7044 -88.5867 280° West 392 451 37,800 650 Climbing Memphis Center
Fri 17:05:29 36.7250 -88.7156 281° West 387 445 38,000 100 Climbing Memphis Center
Fri 17:06:29 36.7433 -88.8447 280° West 387 445 38,000  Level Memphis Center
Fri 17:07:29 36.7636 -88.9739 281° West 387 445 38,000  Level Memphis Center
Fri 17:09:29 36.8039 -89.2350 281° West 387 445 38,000  Level Memphis Center
Fri 17:10:29 36.8236 -89.3617 281° West 387 445 38,000  Level Memphis Center
Fri 17:11:29 36.8414 -89.4911 280° West 387 445 38,000  Level Memphis Center
Fri 17:12:29 36.8608 -89.6231 280° West 387 445 38,000  Level Memphis Center
Fri 17:13:29 36.8825 -89.7525 282° West 387 445 38,000  Level Memphis Center
Fri 17:14:29 36.8997 -89.8794 280° West 387 445 38,000  Level Memphis Center
Fri 17:15:29 36.9169 -90.0092 279° West 387 445 38,000  Level Memphis Center
Fri 17:16:29 36.9358 -90.1389 280° West 387 445 38,000  Level Memphis Center
Fri 17:17:29 36.9528 -90.2686 279° West 387 445 38,000  Level Memphis Center
Fri 17:18:29 36.9714 -90.3983 280° West 387 445 38,000  Level Memphis Center
Fri 17:19:29 36.9903 -90.5283 280° West 387 445 38,000  Level Memphis Center
Fri 17:21:52 37.0347 -90.8278 281° West 380 437 38,000  Level Kansas City Center
Fri 17:22:53 37.0528 -90.9561 280° West 377 434 38,000  Level Kansas City Center
Fri 17:23:55 37.0708 -91.0842 280° West 375 432 38,000  Level Kansas City Center
Fri 17:24:58 37.0878 -91.2153 279° West 373 429 38,000  Level Kansas City Center
Fri 17:25:59 37.1044 -91.3422 279° West 370 426 38,000  Level Kansas City Center
Fri 17:27:03 37.1222 -91.4717 280° West 373 429 38,000  Level Kansas City Center
Fri 17:28:03 37.1386 -91.6000 279° West 372 428 38,000  Level Kansas City Center
Fri 17:29:05 37.1603 -91.7544 280° West 373 429 38,000  Level Kansas City Center
Fri 17:30:08 37.1764 -91.8850 279° West 377 434 38,000  Level Kansas City Center
Fri 17:31:09 37.1939 -92.0156 280° West 377 434 38,000  Level Kansas City Center
Fri 17:32:11 37.2103 -92.1456 279° West 375 432 38,000  Level Kansas City Center
Fri 17:33:14 37.2272 -92.2742 279° West 374 430 38,000  Level Kansas City Center
Fri 17:34:16 37.2439 -92.4072 279° West 376 433 38,000  Level Kansas City Center
Fri 17:35:19 37.2606 -92.5408 279° West 380 437 38,000  Level Kansas City Center
Fri 17:36:20 37.2772 -92.6756 279° West 386 444 38,000  Level Kansas City Center
Fri 17:37:24 37.2931 -92.8106 278° West 387 445 38,000  Level Kansas City Center
Fri 17:38:24 37.3128 -92.9714 279° West 387 445 38,000  Level Kansas City Center
Fri 17:39:26 37.3294 -93.1083 279° West 392 451 38,000  Level Kansas City Center
Fri 17:40:30 37.3450 -93.2428 278° West 389 448 38,000  Level Kansas City Center
Fri 17:41:30 37.3656 -93.3742 281° West 385 443 38,000  Level Kansas City Center
Fri 17:42:34 37.4031 -93.5044 290° West 391 450 38,000  Level Kansas City Center
Fri 17:43:34 37.4400 -93.6361 289° West 394 453 38,000  Level Kansas City Center
Fri 17:44:38 37.4758 -93.7658 289° West 393 452 38,000  Level Kansas City Center
Fri 17:45:38 37.5189 -93.9228 289° West 392 451 38,000  Level Kansas City Center
Fri 17:46:39 37.5556 -94.0533 290° West 394 453 38,000  Level Kansas City Center
Fri 17:47:44 37.5942 -94.1894 290° West 394 453 38,000  Level Kansas City Center
Fri 17:48:44 37.6289 -94.3214 288° West 396 456 38,000  Level Kansas City Center
Fri 17:49:48 37.6647 -94.4514 289° West 394 453 38,000  Level Kansas City Center
Fri 17:50:48 37.7008 -94.5872 289° West 394 453 38,000  Level Kansas City Center
Fri 17:51:52 37.7339 -94.7131 288° West 394 453 38,000  Level Kansas City Center
Fri 17:52:53 37.7736 -94.8600 289° West 394 453 38,000  Level Kansas City Center
Fri 17:53:54 37.8072 -94.9881 288° West 398 458 38,000  Level Kansas City Center
Fri 17:54:58 37.8464 -95.1369 288° West 397 457 38,000  Level Kansas City Center
Fri 17:55:59 37.8814 -95.2692 289° West 398 458 38,000  Level Kansas City Center
Fri 17:57:02 37.9156 -95.4031 288° West 398 458 38,000  Level Kansas City Center
Fri 17:58:03 37.9528 -95.5442 289° West 405 466 38,000  Level Kansas City Center
Fri 17:59:05 37.9922 -95.6928 289° West 398 458 38,000  Level Kansas City Center
Fri 18:00:08 38.0247 -95.8197 288° West 396 456 38,000  Level Kansas City Center
Fri 18:01:09 38.0564 -95.9478 287° West 399 459 38,000  Level Kansas City Center
Fri 18:02:10 38.0942 -96.0953 288° West 394 453 38,000  Level Kansas City Center
Fri 18:03:13 38.1272 -96.2261 288° West 396 456 38,000  Level Kansas City Center
Fri 18:04:14 38.1606 -96.3589 288° West 395 455 38,000  Level Kansas City Center
Fri 18:05:17 38.1928 -96.4911 287° West 394 453 38,000  Level Kansas City Center
Fri 18:06:19 38.2264 -96.6228 288° West 392 451 38,000  Level Kansas City Center
Fri 18:07:20 38.2656 -96.7811 288° West 393 452 38,000  Level Kansas City Center
Fri 18:08:24 38.2983 -96.9133 288° West 392 451 38,000  Level Kansas City Center
Fri 18:09:24 38.3303 -97.0442 287° West 390 449 38,000  Level Kansas City Center
Fri 18:10:28 38.3611 -97.1739 287° West 385 443 38,000  Level Kansas City Center
Fri 18:11:31 38.3925 -97.3033 287° West 385 443 38,000  Level Kansas City Center
Fri 18:12:31 38.4297 -97.4603 287° West 387 445 38,000  Level Kansas City Center
Fri 18:13:32 38.4611 -97.5903 287° West 388 447 38,000  Level Kansas City Center
Fri 18:14:36 38.4906 -97.7158 287° West 377 434 38,000  Level Kansas City Center
Fri 18:15:36 38.5208 -97.8419 287° West 373 429 38,000  Level Kansas City Center
Fri 18:16:41 38.5506 -97.9689 287° West 375 432 38,000  Level Kansas City Center
Fri 18:17:41 38.5864 -98.1192 287° West 372 428 38,000  Level Kansas City Center
Fri 18:18:43 38.6144 -98.2447 286° West 369 425 38,000  Level Kansas City Center
Fri 18:19:47 38.6442 -98.3719 287° West 373 429 38,000  Level Kansas City Center
Fri 18:20:47 38.6731 -98.4994 286° West 374 430 38,000  Level Kansas City Center
Fri 18:21:49 38.7019 -98.6283 286° West 378 435 38,000  Level Kansas City Center
Fri 18:22:52 38.7331 -98.7583 287° West 382 440 38,000  Level Kansas City Center
Fri 18:23:55 38.7675 -98.9156 286° West 383 441 38,000  Level Kansas City Center
Fri 18:24:57 38.7975 -99.0467 286° West 384 442 38,000  Level Kansas City Center
Fri 18:25:58 38.8272 -99.1769 286° West 381 438 38,000  Level Kansas City Center
Fri 18:26:59 38.8492 -99.3133 282° West 390 449 38,000  Level Kansas City Center
Fri 18:28:02 38.8500 -99.4561 270° West 398 458 38,000  Level Kansas City Center
Fri 18:28:56 38.8511 -99.5967 271° West 393 452 38,000  Level Denver Center
Fri 18:29:58 38.8522 -99.7294 271° West 391 450 38,000  Level Denver Center
Fri 18:31:00 38.8531 -99.8822 270° West 385 443 38,000  Level Denver Center
Fri 18:32:01 38.8531 -99.9928 270° West 388 447 38,000  Level Denver Center
Fri 18:33:04 38.8542 -100.1667 271° West 384 442 38,000  Level Denver Center
Fri 18:34:06 38.8547 -100.2975 270° West 384 442 38,000  Level Denver Center
Fri 18:35:08 38.8553 -100.4519 270° West 388 447 38,000  Level Denver Center
Fri 18:36:09 38.8556 -100.5811 270° West 383 441 38,000  Level Denver Center
Fri 18:37:11 38.8553 -100.7358 270° West 388 447 38,000  Level Denver Center
Fri 18:38:13 38.8544 -100.8700 270° West 392 451 38,000  Level Denver Center
Fri 18:39:15 38.8547 -101.0247 270° West 390 449 38,000  Level Denver Center
Fri 18:40:17 38.8539 -101.1578 270° West 391 450 38,000  Level Denver Center
Fri 18:41:19 38.8528 -101.3150 270° West 395 455 38,000  Level Denver Center
Fri 18:42:21 38.8522 -101.4497 270° West 395 455 38,000  Level Denver Center
Fri 18:43:23 38.8511 -101.6094 270° West 399 459 38,000 -435 Level Denver Center
Fri 18:44:25 38.8497 -101.7433 269° West 395 455 37,100 -1,065 Descending Denver Center
Fri 18:45:27 38.8481 -101.8950 269° West 384 442 35,800 -1,161 Descending Denver Center
Fri 18:46:29 38.8467 -102.0292 269° West 391 450 34,700 -871 Descending Denver Center
Fri 18:47:31 38.8522 -102.1833 273° West 388 447 34,000 -339 Descending Denver Center
Fri 18:48:33 38.8925 -102.3053 293° West 387 445 34,000  Level Denver Center
Fri 18:49:35 38.9308 -102.4275 292° West 388 447 34,000  Level Denver Center
Fri 18:50:37 38.9756 -102.5700 292° West 386 444 34,000  Level Denver Center
Fri 18:51:39 39.0125 -102.6925 291° West 385 443 34,000  Level Denver Center
Fri 18:52:52 39.0589 -102.8400 292° West 384 442 34,000  Level Denver Center
Fri 18:53:55 39.1056 -102.9894 292° West 383 441 34,000 -1,008 Level Denver Center
Fri 18:54:57 39.1467 -103.1172 293° West 382 440 31,900 -2,323 Descending Denver Center
Fri 18:55:59 39.1864 -103.2489 291° West 388 447 29,200 -2,419 Descending Denver Center
Fri 18:57:01 39.2250 -103.3739 292° West 375 432 26,900 -2,226 Descending Denver Center
Fri 18:58:03 39.2625 -103.4922 292° West 357 411 24,600 -2,274 Descending Denver Center
Fri 18:59:05 39.3019 -103.6256 291° West 339 390 22,200 -2,129 Descending Denver Center
Fri 19:00:07 39.3353 -103.7353 291° West 327 376 20,200 -1,765 Descending Denver Center
Fri 19:01:21 39.3681 -103.8447 291° West 324 373 18,200 -1,544 Descending Denver Center
Fri 19:02:23 39.3981 -103.9786 286° West 312 359 16,700 -1,452 Descending Denver Center
Fri 19:03:25 39.4044 -104.0836 275° West 297 342 15,200 -1,548 Descending Denver Center
Fri 19:04:27 39.4081 -104.1939 272° West 282 325 13,500 -1,694 Descending Denver Center
Fri 19:05:29 39.4306 -104.2919 287° West 283 326 11,700 -1,210 Descending Denver Center
Fri 19:06:31 39.4697 -104.3847 299° West 275 316 11,000 -339 Descending Denver Center
Fri 19:07:33 39.5022 -104.4603 299° West 245 282 11,000 -532 Level Denver Center
Fri 19:08:35 39.5581 -104.5183 321° Northwest 252 290 9,900 -968 Descending Denver Center
Fri 19:09:37 39.6108 -104.5689 324° Northwest 238 274 9,000 -629 Descending Denver Center
Fri 19:10:39 39.6606 -104.6208 321° Northwest 234 269 8,600 -532 Descending Denver Center
Fri 19:11:41 39.7167 -104.6483 339° North 206 237 7,900 -919 Descending Denver Center
Fri 19:12:43 39.7647 -104.6617 348° North 182 209 6,700 -1,016 Descending Denver Center
Fri 19:13:45 39.8111 -104.6608 North 157 181 5,800 -629 Descending Denver Center
Fri 19:14:47 39.8489 -104.6611 360° North 146 168 5,400 -387 Descending Denver Center
Fri 19:16:00 39.8500 -104.6667 North  Level FlightAware Approximate
Fri 19:23:00 39.8617 -104.6732 North  Level Estimated
Fri 19:24:00 39.8617 -104.6732 North  Level Estimated

Login

Don't have an account? Register now (free) for customized features, flight alerts, and more!